createdAt,value
2019-01-03T00:05:03.971Z,3.67
2019-01-03T00:10:37.657Z,4.40
2019-01-03T00:16:02.194Z,3.03
2019-01-03T00:21:27.511Z,3.70
2019-01-03T00:26:53.681Z,3.57
2019-01-03T00:32:18.726Z,4.80
2019-01-03T00:37:49.747Z,3.47
2019-01-03T00:43:12.779Z,7.60
2019-01-03T00:48:36.223Z,5.27
2019-01-03T00:54:17.978Z,4.70
2019-01-03T01:00:00.662Z,4.60
2019-01-03T01:05:34.642Z,5.60
2019-01-03T01:11:03.244Z,4.93
2019-01-03T01:16:42.920Z,3.97
2019-01-03T01:22:07.083Z,6.80
2019-01-03T01:27:31.454Z,4.57
2019-01-03T01:32:53.758Z,2.63
2019-01-03T01:38:24.974Z,3.17
2019-01-03T01:44:02.069Z,4.20
2019-01-03T01:49:32.513Z,4.93
2019-01-03T01:54:55.300Z,1.97
2019-01-03T02:00:18.488Z,9.37
2019-01-03T02:05:41.343Z,3.53
2019-01-03T02:11:04.245Z,5.07
2019-01-03T02:16:33.686Z,4.53
2019-01-03T02:22:00.718Z,6.77
2019-01-03T02:27:20.034Z,5.13
2019-01-03T02:32:44.229Z,5.60
2019-01-03T02:38:20.523Z,2.77
2019-01-03T02:43:57.110Z,4.00
2019-01-03T02:49:20.786Z,4.13
2019-01-03T02:54:48.383Z,3.73
2019-01-03T03:00:12.579Z,5.67
2019-01-03T03:05:52.157Z,6.10
2019-01-03T03:11:19.350Z,8.10
2019-01-03T03:16:42.855Z,3.43
2019-01-03T03:22:12.954Z,4.90
2019-01-03T03:27:29.646Z,4.83
2019-01-03T03:33:08.697Z,3.53
2019-01-03T03:38:51.425Z,3.50
2019-01-03T03:44:12.558Z,2.77
2019-01-03T03:49:36.759Z,3.13
2019-01-03T03:55:05.400Z,3.97
2019-01-03T04:00:30.019Z,4.27
2019-01-03T04:05:53.619Z,3.43
2019-01-03T04:11:24.173Z,2.70
2019-01-03T04:16:49.634Z,4.73
2019-01-03T04:22:12.982Z,3.57
2019-01-03T04:27:33.652Z,4.27
2019-01-03T04:32:56.732Z,2.30
2019-01-03T04:38:26.827Z,5.23
2019-01-03T04:43:50.195Z,1.60
2019-01-03T04:49:14.561Z,3.87
2019-01-03T04:54:50.793Z,7.70
2019-01-03T05:00:25.629Z,2.87
2019-01-03T05:05:54.776Z,1.83
2019-01-03T05:11:30.062Z,6.53
2019-01-03T05:16:52.956Z,4.13
2019-01-03T05:22:32.975Z,4.80
2019-01-03T05:27:55.847Z,3.77
2019-01-03T05:33:26.596Z,1.43
2019-01-03T05:38:59.551Z,3.63
2019-01-03T05:44:22.743Z,6.23
2019-01-03T05:49:46.760Z,3.50
2019-01-03T05:55:10.092Z,2.27
2019-01-03T06:00:32.131Z,3.50
2019-01-03T06:05:55.243Z,4.10
2019-01-03T06:11:22.718Z,4.10
2019-01-03T06:16:41.227Z,3.40
2019-01-03T06:22:11.487Z,3.00
2019-01-03T06:27:48.660Z,6.53
2019-01-03T06:33:08.470Z,3.33
2019-01-03T06:38:35.672Z,3.33
2019-01-03T06:43:59.013Z,3.97
2019-01-03T06:49:29.242Z,5.10
2019-01-03T06:54:53.135Z,2.83
2019-01-03T07:00:32.770Z,4.13
2019-01-03T07:06:15.125Z,5.23
2019-01-03T07:11:38.170Z,3.83
2019-01-03T07:17:01.485Z,4.40
2019-01-03T07:22:44.102Z,4.87
2019-01-03T07:28:07.488Z,6.00
2019-01-03T07:33:30.945Z,7.23
2019-01-03T07:38:53.435Z,5.40
2019-01-03T07:44:16.381Z,3.93
2019-01-03T07:49:39.338Z,3.73
2019-01-03T07:55:16.093Z,4.60
2019-01-03T08:00:47.573Z,3.73
2019-01-03T08:06:11.646Z,2.73
2019-01-03T08:11:51.110Z,7.10
2019-01-03T08:17:12.163Z,4.07
2019-01-03T08:22:39.485Z,3.60
2019-01-03T08:28:06.415Z,4.80
2019-01-03T08:33:37.269Z,5.73
2019-01-03T08:39:00.427Z,3.70
2019-01-03T08:44:27.057Z,3.93
2019-01-03T08:50:04.068Z,3.17
2019-01-03T08:55:27.768Z,4.37
2019-01-03T09:00:51.912Z,5.17
2019-01-03T09:06:15.345Z,4.77
2019-01-03T09:11:45.526Z,5.10
2019-01-03T09:17:04.443Z,4.60
2019-01-03T09:22:27.665Z,3.83
2019-01-03T09:28:01.018Z,4.60
2019-01-03T09:33:24.712Z,4.63
2019-01-03T09:38:48.959Z,3.80
2019-01-03T09:44:05.546Z,6.33
2019-01-03T09:49:11.187Z,4.70
2019-01-03T09:54:17.398Z,2.77
2019-01-03T09:59:22.907Z,2.23
2019-01-03T10:04:28.447Z,3.30
2019-01-03T10:09:33.678Z,6.57
2019-01-03T10:14:39.223Z,3.43
2019-01-03T10:19:44.397Z,3.50
2019-01-03T10:24:50.826Z,1.97
2019-01-03T10:29:55.999Z,4.33
2019-01-03T10:35:01.187Z,3.40
2019-01-03T10:40:06.785Z,2.83
2019-01-03T10:45:12.073Z,1.80
2019-01-03T10:50:17.276Z,4.50
2019-01-03T10:55:22.445Z,3.83
2019-01-03T11:00:27.609Z,5.37
2019-01-03T11:05:33.868Z,5.30
2019-01-03T11:10:39.035Z,2.20
2019-01-03T11:15:44.341Z,2.50
2019-01-03T11:20:49.492Z,5.37
2019-01-03T11:25:54.584Z,4.43
2019-01-03T11:31:00.072Z,3.20
2019-01-03T11:36:05.245Z,2.70
2019-01-03T11:41:10.432Z,2.80
2019-01-03T11:46:15.633Z,3.50
2019-01-03T11:51:20.831Z,6.27
2019-01-03T11:56:26.007Z,6.27
2019-01-03T12:01:31.476Z,4.80
2019-01-03T12:06:37.009Z,5.43
2019-01-03T12:11:43.223Z,2.43
2019-01-03T12:16:48.408Z,5.00
2019-01-03T12:21:53.926Z,12.33
2019-01-03T12:26:59.393Z,7.03
2019-01-03T12:32:04.665Z,3.60
2019-01-03T12:37:09.849Z,6.47
2019-01-03T12:42:15.021Z,8.50
2019-01-03T12:47:20.234Z,7.07
2019-01-03T12:52:25.968Z,7.93
2019-01-03T12:57:31.140Z,10.73
2019-01-03T13:02:36.685Z,9.80
2019-01-03T13:07:41.920Z,8.13
2019-01-03T13:12:47.099Z,6.27
2019-01-03T13:17:53.459Z,9.30
2019-01-03T13:23:00.343Z,10.40
2019-01-03T13:28:05.505Z,9.93
2019-01-03T13:33:10.701Z,8.30
2019-01-03T13:38:16.194Z,10.63
2019-01-03T13:43:21.501Z,9.93
2019-01-03T13:48:26.778Z,10.80
2019-01-03T13:53:32.011Z,12.30
2019-01-03T13:58:37.649Z,16.23
2019-01-03T14:03:42.819Z,11.27
2019-01-03T14:08:48.020Z,12.70
2019-01-03T14:13:53.202Z,11.43
2019-01-03T14:18:59.825Z,14.37
2019-01-03T14:24:05.975Z,14.23
2019-01-03T14:29:11.182Z,12.27
2019-01-03T14:34:16.366Z,13.50
2019-01-03T14:39:21.558Z,14.53
2019-01-03T14:44:26.929Z,15.37
2019-01-03T14:49:32.178Z,15.77
2019-01-03T14:54:37.443Z,10.90
2019-01-03T14:59:42.917Z,15.67
2019-01-03T15:04:48.794Z,12.53
2019-01-03T15:09:54.284Z,13.57
2019-01-03T15:15:00.967Z,13.07
2019-01-03T15:20:06.611Z,16.67
2019-01-03T15:25:12.428Z,14.87
2019-01-03T15:30:17.638Z,10.40
2019-01-03T15:35:23.507Z,16.77
2019-01-03T15:40:28.814Z,14.93
2019-01-03T15:45:33.993Z,12.80
2019-01-03T15:50:40.692Z,17.97
2019-01-03T15:55:46.263Z,14.57
2019-01-03T16:00:51.439Z,13.87
2019-01-03T16:05:56.618Z,16.07
2019-01-03T16:11:01.835Z,15.07
2019-01-03T16:16:07.067Z,16.73
2019-01-03T16:21:12.629Z,17.63
2019-01-03T16:26:17.850Z,13.07
2019-01-03T16:31:23.066Z,14.47
2019-01-03T16:36:28.244Z,10.70
2019-01-03T16:41:33.789Z,11.67
2019-01-03T16:46:39.283Z,12.27
2019-01-03T16:51:45.481Z,9.30
2019-01-03T16:56:50.665Z,12.57
2019-01-03T17:01:55.967Z,15.67
2019-01-03T17:07:01.263Z,11.33
2019-01-03T17:12:08.670Z,14.23
2019-01-03T17:17:13.864Z,11.93
2019-01-03T17:22:19.492Z,13.87
2019-01-03T17:27:25.143Z,10.63
2019-01-03T17:32:30.712Z,10.47
2019-01-03T17:37:35.910Z,9.23
2019-01-03T17:42:42.149Z,10.37
2019-01-03T17:47:47.323Z,11.93
2019-01-03T17:52:52.808Z,7.93
2019-01-03T17:57:58.879Z,8.87
2019-01-03T18:03:04.451Z,10.57
2019-01-03T18:08:09.695Z,7.50
2019-01-03T18:13:14.972Z,7.37
2019-01-03T18:18:20.533Z,5.13
2019-01-03T18:23:26.342Z,9.20
2019-01-03T18:28:31.505Z,10.80
2019-01-03T18:33:36.691Z,10.10
2019-01-03T18:38:42.242Z,7.13
2019-01-03T18:43:47.697Z,6.90
2019-01-03T18:48:53.799Z,7.10
2019-01-03T18:53:59.108Z,9.80
2019-01-03T18:59:04.290Z,11.23
2019-01-03T19:04:09.529Z,7.73
2019-01-03T19:09:14.738Z,10.00
2019-01-03T19:14:19.905Z,6.87
2019-01-03T19:19:25.194Z,12.23
2019-01-03T19:24:30.418Z,7.03
2019-01-03T19:29:35.606Z,6.37
2019-01-03T19:34:41.595Z,7.10
2019-01-03T19:39:47.154Z,11.40
2019-01-03T19:44:52.481Z,9.77
2019-01-03T19:49:57.967Z,10.53
2019-01-03T19:55:03.149Z,9.80
2019-01-03T20:00:10.729Z,11.60
2019-01-03T20:05:16.267Z,6.73
2019-01-03T20:10:21.454Z,11.07
2019-01-03T20:15:26.682Z,11.40
2019-01-03T20:20:31.859Z,7.43
2019-01-03T20:25:37.820Z,7.60
2019-01-03T20:30:43.259Z,11.33
2019-01-03T20:35:48.890Z,12.23
2019-01-03T20:40:54.080Z,13.63
2019-01-03T20:45:59.480Z,10.97
2019-01-03T20:51:05.136Z,11.00
2019-01-03T20:56:10.330Z,10.37
2019-01-03T21:01:15.970Z,10.53
2019-01-03T21:06:21.218Z,12.30
2019-01-03T21:11:26.412Z,11.53
2019-01-03T21:16:32.459Z,13.63
2019-01-03T21:21:37.649Z,15.47
2019-01-03T21:26:43.119Z,14.83
2019-01-03T21:31:48.313Z,15.17
2019-01-03T21:36:53.538Z,18.63
2019-01-03T21:41:58.719Z,18.27
2019-01-03T21:47:04.454Z,15.83
2019-01-03T21:52:10.844Z,13.67
2019-01-03T21:57:16.264Z,18.57
2019-01-03T22:02:21.857Z,15.67
2019-01-03T22:07:27.930Z,16.97
2019-01-03T22:12:34.529Z,16.30
2019-01-03T22:17:39.886Z,20.67
2019-01-03T22:22:45.096Z,18.27
2019-01-03T22:27:50.296Z,20.40
2019-01-03T22:32:55.886Z,18.30
2019-01-03T22:38:01.447Z,21.37
2019-01-03T22:43:06.654Z,18.30
2019-01-03T22:48:12.122Z,19.40
2019-01-03T22:53:18.517Z,17.10
2019-01-03T22:58:24.071Z,19.03
2019-01-03T23:03:29.514Z,20.63
2019-01-03T23:08:34.702Z,18.03
2019-01-03T23:13:39.914Z,18.97
2019-01-03T23:18:46.276Z,20.03
2019-01-03T23:23:51.528Z,15.07
2019-01-03T23:28:56.710Z,16.57
2019-01-03T23:34:01.886Z,21.03
2019-01-03T23:39:07.295Z,19.57
2019-01-03T23:44:12.485Z,18.90
2019-01-03T23:49:17.990Z,16.30
2019-01-03T23:54:23.195Z,18.97
2019-01-03T23:59:28.377Z,15.40
